createdAt,value
2018-09-18T00:01:06.840Z,87.10
2018-09-18T00:03:35.400Z,87.34
2018-09-18T00:06:04.012Z,86.51
2018-09-18T00:08:38.989Z,89.15
2018-09-18T00:11:07.592Z,87.10
2018-09-18T00:13:36.364Z,85.03
2018-09-18T00:16:05.380Z,86.57
2018-09-18T00:18:34.019Z,86.81
2018-09-18T00:21:02.580Z,86.79
2018-09-18T00:23:31.078Z,88.22
2018-09-18T00:26:06.194Z,88.55
2018-09-18T00:28:39.322Z,90.73
2018-09-18T00:31:12.853Z,90.13
2018-09-18T00:33:46.774Z,88.93
2018-09-18T00:36:21.847Z,88.90
2018-09-18T00:38:55.917Z,88.62
2018-09-18T00:41:32.097Z,90.48
2018-09-18T00:44:06.400Z,91.82
2018-09-18T00:46:42.213Z,90.10
2018-09-18T00:49:15.981Z,88.71
2018-09-18T00:51:51.270Z,91.17
2018-09-18T00:54:29.801Z,91.45
2018-09-18T00:57:05.457Z,90.52
2018-09-18T01:00:10.540Z,90.31
2018-09-18T01:03:25.408Z,87.98
2018-09-18T01:05:58.756Z,89.15
2018-09-18T01:08:34.276Z,89.68
2018-09-18T01:11:08.764Z,89.78
2018-09-18T01:13:43.975Z,88.13
2018-09-18T01:16:12.784Z,88.89
2018-09-18T01:18:47.853Z,90.95
2018-09-18T01:21:22.637Z,93.91
2018-09-18T01:23:58.444Z,89.83
2018-09-18T01:26:34.186Z,88.11
2018-09-18T01:29:09.054Z,89.03
2018-09-18T01:31:42.622Z,90.32
2018-09-18T01:34:17.460Z,88.90
2018-09-18T01:36:51.513Z,88.28
2018-09-18T01:39:20.274Z,89.64
2018-09-18T01:41:48.840Z,90.05
2018-09-18T01:44:17.376Z,89.26
2018-09-18T01:46:45.940Z,89.28
2018-09-18T01:49:14.492Z,91.19
2018-09-18T01:51:43.021Z,91.69
2018-09-18T01:54:11.625Z,89.63
2018-09-18T01:56:40.209Z,89.22
2018-09-18T01:59:08.784Z,89.19
2018-09-18T02:01:39.008Z,89.36
2018-09-18T02:04:07.644Z,89.37
2018-09-18T02:06:36.187Z,90.74
2018-09-18T02:09:05.948Z,89.06
2018-09-18T02:11:34.488Z,91.21
2018-09-18T02:14:03.055Z,91.43
2018-09-18T02:16:31.577Z,91.30
2018-09-18T02:19:00.128Z,89.62
2018-09-18T02:21:28.655Z,91.64
2018-09-18T02:23:57.216Z,91.18
2018-09-18T02:26:25.756Z,92.69
2018-09-18T02:28:54.330Z,93.08
2018-09-18T02:31:22.857Z,92.10
2018-09-18T02:33:51.413Z,91.95
2018-09-18T02:36:20.034Z,93.87
2018-09-18T02:38:49.047Z,93.89
2018-09-18T02:41:17.605Z,93.40
2018-09-18T02:43:46.469Z,93.90
2018-09-18T02:46:15.058Z,93.80
2018-09-18T02:48:43.719Z,93.46
2018-09-18T02:51:12.323Z,94.11
2018-09-18T02:53:40.888Z,94.35
2018-09-18T02:56:09.444Z,91.76
2018-09-18T02:58:38.004Z,92.33
2018-09-18T03:01:06.536Z,90.03
2018-09-18T03:03:35.099Z,90.57
2018-09-18T03:06:03.613Z,91.38
2018-09-18T03:08:32.197Z,91.83
2018-09-18T03:11:00.736Z,93.36
2018-09-18T03:13:29.355Z,91.46
2018-09-18T03:15:57.888Z,91.61
2018-09-18T03:18:26.475Z,92.70
2018-09-18T03:20:55.059Z,95.03
2018-09-18T03:23:23.625Z,94.74
2018-09-18T03:25:52.145Z,94.32
2018-09-18T03:28:20.762Z,91.00
2018-09-18T03:30:49.288Z,92.19
2018-09-18T03:33:17.908Z,91.11
2018-09-18T03:35:46.613Z,92.67
2018-09-18T03:38:15.089Z,95.46
2018-09-18T03:40:43.652Z,94.03
2018-09-18T03:43:12.192Z,94.73
2018-09-18T03:45:40.774Z,92.51
2018-09-18T03:48:09.380Z,93.81
2018-09-18T03:50:37.976Z,93.63
2018-09-18T03:53:06.495Z,93.91
2018-09-18T03:55:35.045Z,94.12
2018-09-18T03:58:03.583Z,92.71
2018-09-18T04:00:32.148Z,91.38
2018-09-18T04:03:00.694Z,91.37
2018-09-18T04:05:29.261Z,92.32
2018-09-18T04:07:57.813Z,94.29
2018-09-18T04:10:26.365Z,94.04
2018-09-18T04:12:54.908Z,93.19
2018-09-18T04:15:23.576Z,93.45
2018-09-18T04:17:52.192Z,92.65
2018-09-18T04:20:20.786Z,91.84
2018-09-18T04:22:49.318Z,92.11
2018-09-18T04:25:18.247Z,91.47
2018-09-18T04:27:48.106Z,91.14
2018-09-18T04:30:18.345Z,89.92
2018-09-18T04:32:46.919Z,90.52
2018-09-18T04:35:15.481Z,90.83
2018-09-18T04:37:44.104Z,91.53
2018-09-18T04:40:12.720Z,91.01
2018-09-18T04:42:41.388Z,90.54
2018-09-18T04:45:12.174Z,90.93
2018-09-18T04:47:41.593Z,91.91
2018-09-18T04:50:10.906Z,92.09
2018-09-18T04:52:39.432Z,91.35
2018-09-18T04:55:08.815Z,91.46
2018-09-18T04:57:37.840Z,91.40
2018-09-18T05:00:07.996Z,91.74
2018-09-18T05:02:40.510Z,92.61
2018-09-18T05:05:09.513Z,91.76
2018-09-18T05:07:38.964Z,92.07
2018-09-18T05:10:07.586Z,92.15
2018-09-18T05:12:36.805Z,92.49
2018-09-18T05:15:06.486Z,93.54
2018-09-18T05:17:35.139Z,92.35
2018-09-18T05:20:04.578Z,91.87
2018-09-18T05:22:33.790Z,91.91
2018-09-18T05:25:04.239Z,91.02
2018-09-18T05:27:32.764Z,91.34
2018-09-18T05:30:01.867Z,91.26
2018-09-18T05:32:30.905Z,92.25
2018-09-18T05:35:00.057Z,92.33
2018-09-18T05:37:28.586Z,91.14
2018-09-18T05:39:57.116Z,90.23
2018-09-18T05:42:25.672Z,90.13
2018-09-18T05:44:54.500Z,90.81
2018-09-18T05:47:23.056Z,91.44
2018-09-18T05:49:51.643Z,91.81
2018-09-18T05:52:20.227Z,91.73
2018-09-18T05:54:48.757Z,91.79
2018-09-18T05:57:17.692Z,91.19
2018-09-18T05:59:46.253Z,90.92
2018-09-18T06:02:14.823Z,90.98
2018-09-18T06:04:43.377Z,89.33
2018-09-18T06:07:11.956Z,88.99
2018-09-18T06:09:40.489Z,89.48
2018-09-18T06:12:09.087Z,88.33
2018-09-18T06:14:37.618Z,88.33
2018-09-18T06:17:06.181Z,88.02
2018-09-18T06:19:35.560Z,88.01
2018-09-18T06:22:04.125Z,87.37
2018-09-18T06:24:32.729Z,86.67
2018-09-18T06:27:01.294Z,86.70
2018-09-18T06:29:29.844Z,86.32
2018-09-18T06:31:58.418Z,85.89
2018-09-18T06:34:26.949Z,85.12
2018-09-18T06:36:55.637Z,84.46
2018-09-18T06:39:24.140Z,84.32
2018-09-18T06:41:52.699Z,85.02
2018-09-18T06:44:21.234Z,84.14
2018-09-18T06:46:49.787Z,84.56
2018-09-18T06:49:18.313Z,84.21
2018-09-18T06:51:46.929Z,83.59
2018-09-18T06:54:15.467Z,84.02
2018-09-18T06:56:44.033Z,83.04
2018-09-18T06:59:12.562Z,82.88
2018-09-18T07:01:41.138Z,83.41
2018-09-18T07:04:09.925Z,82.89
2018-09-18T07:06:38.601Z,83.07
2018-09-18T07:09:08.448Z,83.25
2018-09-18T07:11:37.356Z,81.51
2018-09-18T07:14:06.027Z,81.71
2018-09-18T07:16:34.893Z,81.65
2018-09-18T07:19:03.432Z,81.36
2018-09-18T07:21:32.003Z,81.07
2018-09-18T07:24:00.596Z,80.54
2018-09-18T07:26:29.166Z,80.68
2018-09-18T07:28:57.709Z,80.50
2018-09-18T07:31:26.248Z,79.63
2018-09-18T07:33:54.884Z,79.50
2018-09-18T07:36:23.400Z,79.45
2018-09-18T07:38:51.961Z,78.88
2018-09-18T07:41:27.099Z,78.64
2018-09-18T07:43:55.656Z,78.47
2018-09-18T07:46:24.180Z,78.09
2018-09-18T07:48:52.846Z,78.41
2018-09-18T07:51:21.388Z,78.02
2018-09-18T07:53:50.072Z,77.81
2018-09-18T07:56:18.604Z,77.92
2018-09-18T07:58:48.069Z,77.67
2018-09-18T08:01:23.866Z,77.21
2018-09-18T08:03:52.702Z,77.44
2018-09-18T08:06:21.229Z,77.26
2018-09-18T08:08:53.550Z,77.19
2018-09-18T08:11:22.130Z,76.61
2018-09-18T08:13:50.920Z,76.72
2018-09-18T08:16:19.455Z,77.04
2018-09-18T08:18:48.138Z,77.13
2018-09-18T08:21:16.630Z,77.46
2018-09-18T08:23:45.205Z,77.86
2018-09-18T08:26:13.736Z,77.23
2018-09-18T08:28:42.311Z,77.07
2018-09-18T08:31:10.844Z,76.94
2018-09-18T08:33:39.429Z,76.41
2018-09-18T08:36:08.069Z,76.31
2018-09-18T08:38:36.620Z,76.21
2018-09-18T08:41:05.230Z,75.91
2018-09-18T08:43:34.305Z,74.38
2018-09-18T08:46:02.853Z,75.31
2018-09-18T08:48:32.339Z,75.00
2018-09-18T08:51:01.894Z,75.08
2018-09-18T08:53:31.589Z,74.62
2018-09-18T08:56:00.186Z,73.19
2018-09-18T08:58:28.732Z,72.51
2018-09-18T09:00:57.384Z,73.13
2018-09-18T09:03:25.956Z,72.99
2018-09-18T09:05:54.543Z,69.37
2018-09-18T09:08:23.179Z,69.51
2018-09-18T09:10:51.641Z,70.00
2018-09-18T09:13:20.238Z,70.26
2018-09-18T09:15:48.748Z,68.40
2018-09-18T09:18:17.387Z,69.60
2018-09-18T09:20:45.932Z,70.22
2018-09-18T09:23:14.532Z,69.49
2018-09-18T09:25:43.121Z,69.72
2018-09-18T09:28:11.650Z,70.45
2018-09-18T09:30:40.209Z,69.33
2018-09-18T09:33:08.778Z,68.96
2018-09-18T09:35:37.335Z,68.58
2018-09-18T09:38:06.118Z,68.94
2018-09-18T09:40:34.681Z,69.04
2018-09-18T09:43:03.224Z,68.15
2018-09-18T09:45:31.804Z,67.35
2018-09-18T09:48:00.315Z,66.88
2018-09-18T09:50:28.900Z,67.21
2018-09-18T09:52:57.429Z,67.38
2018-09-18T09:55:26.039Z,66.62
2018-09-18T09:57:54.580Z,65.76
2018-09-18T10:00:28.341Z,64.36
2018-09-18T10:02:56.898Z,65.32
2018-09-18T10:05:25.457Z,64.89
2018-09-18T10:07:54.012Z,65.36
2018-09-18T10:10:22.613Z,65.10
2018-09-18T10:12:51.132Z,64.38
2018-09-18T10:15:19.743Z,64.30
2018-09-18T10:17:48.339Z,64.13
2018-09-18T10:20:16.827Z,61.64
2018-09-18T10:22:45.362Z,62.72
2018-09-18T10:25:13.967Z,62.79
2018-09-18T10:27:42.510Z,62.81
2018-09-18T10:30:11.084Z,63.61
2018-09-18T10:32:39.770Z,61.42
2018-09-18T10:35:08.299Z,61.77
2018-09-18T10:37:36.906Z,61.56
2018-09-18T10:40:05.543Z,61.02
2018-09-18T10:42:34.086Z,58.55
2018-09-18T10:45:02.652Z,59.88
2018-09-18T10:47:31.205Z,58.59
2018-09-18T10:50:02.135Z,60.48
2018-09-18T10:52:31.509Z,58.78
2018-09-18T10:55:00.904Z,57.85
2018-09-18T10:57:29.471Z,57.16
2018-09-18T10:59:58.149Z,57.65
2018-09-18T11:02:26.686Z,58.19
2018-09-18T11:04:55.453Z,57.55
2018-09-18T11:07:24.214Z,58.32
2018-09-18T11:09:53.053Z,57.60
2018-09-18T11:12:21.660Z,55.71
2018-09-18T11:14:50.192Z,53.82
2018-09-18T11:17:18.765Z,55.25
2018-09-18T11:19:48.689Z,51.80
2018-09-18T11:22:18.300Z,53.53
2018-09-18T11:24:46.841Z,54.78
2018-09-18T11:27:15.349Z,54.02
2018-09-18T11:29:43.878Z,54.54
2018-09-18T11:32:12.558Z,53.92
2018-09-18T11:34:41.129Z,53.78
2018-09-18T11:37:09.693Z,52.72
2018-09-18T11:39:38.216Z,52.48
2018-09-18T11:42:06.785Z,51.88
2018-09-18T11:44:41.821Z,51.47
2018-09-18T11:47:13.392Z,49.36
2018-09-18T11:49:46.042Z,51.39
2018-09-18T11:52:17.890Z,48.68
2018-09-18T11:54:49.080Z,48.91
2018-09-18T11:57:26.864Z,49.50
2018-09-18T12:00:00.184Z,50.91
2018-09-18T12:02:31.802Z,51.45
2018-09-18T12:05:01.991Z,51.76
2018-09-18T12:07:37.069Z,51.73
2018-09-18T12:10:10.622Z,51.65
2018-09-18T12:12:41.358Z,51.84
2018-09-18T12:15:13.100Z,51.64
2018-09-18T12:17:47.201Z,51.71
2018-09-18T12:20:18.351Z,51.70
2018-09-18T12:22:48.509Z,51.11
2018-09-18T12:25:17.133Z,50.23
2018-09-18T12:27:50.002Z,50.53
2018-09-18T12:30:22.781Z,50.35
2018-09-18T12:32:55.651Z,50.04
2018-09-18T12:35:26.813Z,49.91
2018-09-18T12:37:58.009Z,49.36
2018-09-18T12:40:28.740Z,49.57
2018-09-18T12:43:02.705Z,50.32
2018-09-18T12:45:32.388Z,50.04
2018-09-18T12:48:01.340Z,50.80
2018-09-18T12:50:36.948Z,50.99
2018-09-18T12:53:08.577Z,50.54
2018-09-18T12:55:42.438Z,49.99
2018-09-18T12:58:18.280Z,50.63
2018-09-18T13:00:50.489Z,50.95
2018-09-18T13:03:23.317Z,51.68
2018-09-18T13:05:55.070Z,51.68
2018-09-18T13:08:24.160Z,52.26
2018-09-18T13:10:58.045Z,52.29
2018-09-18T13:13:31.272Z,52.62
2018-09-18T13:16:11.522Z,51.85
2018-09-18T13:18:54.780Z,51.45
2018-09-18T13:21:32.266Z,51.20
2018-09-18T13:24:12.435Z,50.72
2018-09-18T13:26:48.599Z,50.67
2018-09-18T13:29:24.679Z,50.07
2018-09-18T13:32:02.105Z,49.47
2018-09-18T13:34:38.635Z,49.21
2018-09-18T13:37:15.607Z,48.51
2018-09-18T13:39:51.102Z,47.15
2018-09-18T13:42:27.465Z,47.37
2018-09-18T13:45:04.509Z,46.22
2018-09-18T13:47:39.281Z,46.36
2018-09-18T13:50:20.822Z,45.82
2018-09-18T13:52:58.412Z,45.10
2018-09-18T13:55:42.579Z,45.89
2018-09-18T13:58:22.148Z,44.39
2018-09-18T14:00:59.717Z,44.35
2018-09-18T14:03:39.677Z,44.07
2018-09-18T14:06:16.286Z,42.22
2018-09-18T14:08:54.228Z,41.59
2018-09-18T14:11:32.576Z,42.03
2018-09-18T14:14:14.973Z,41.90
2018-09-18T14:16:52.728Z,39.72
2018-09-18T14:19:28.370Z,40.88
2018-09-18T14:22:07.849Z,41.53
2018-09-18T14:24:44.158Z,42.08
2018-09-18T14:27:21.597Z,41.67
2018-09-18T14:29:57.011Z,42.48
2018-09-18T14:32:34.683Z,43.51
2018-09-18T14:35:11.111Z,43.00
2018-09-18T14:37:50.190Z,41.58
2018-09-18T14:40:30.681Z,42.00
2018-09-18T14:43:06.387Z,41.18
2018-09-18T14:45:41.307Z,41.35
2018-09-18T14:48:18.198Z,42.83
2018-09-18T14:50:56.884Z,43.11
2018-09-18T14:53:32.938Z,42.22
2018-09-18T14:56:10.259Z,41.42
2018-09-18T14:58:51.355Z,41.04
2018-09-18T15:01:28.910Z,40.59
2018-09-18T15:04:10.374Z,38.75
2018-09-18T15:06:49.549Z,38.85
2018-09-18T15:09:25.337Z,38.98
2018-09-18T15:12:03.009Z,38.10
2018-09-18T15:14:38.700Z,38.51
2018-09-18T15:17:21.219Z,38.46
2018-09-18T15:20:00.631Z,37.13
2018-09-18T15:22:38.206Z,36.95
2018-09-18T15:25:15.113Z,37.37
2018-09-18T15:27:55.260Z,36.05
2018-09-18T15:30:31.421Z,36.17
2018-09-18T15:33:08.700Z,35.43
2018-09-18T15:38:38.757Z,33.78
2018-09-18T15:41:15.389Z,33.25
2018-09-18T15:43:50.098Z,33.93
2018-09-18T15:46:29.877Z,34.63
2018-09-18T15:49:05.903Z,34.64
2018-09-18T15:51:42.941Z,34.14
2018-09-18T15:54:17.590Z,33.69
2018-09-18T15:56:54.307Z,34.13
2018-09-18T15:59:30.203Z,34.17
2018-09-18T16:02:11.263Z,34.14
2018-09-18T16:04:55.186Z,34.68
2018-09-18T16:07:39.287Z,33.65
2018-09-18T16:10:18.431Z,33.89
2018-09-18T16:13:05.151Z,34.44
2018-09-18T16:15:44.756Z,34.17
2018-09-18T16:18:22.408Z,34.26
2018-09-18T16:20:57.774Z,34.21
2018-09-18T16:23:38.862Z,34.63
2018-09-18T16:26:10.898Z,34.63
2018-09-18T16:28:39.596Z,34.94
2018-09-18T16:31:08.182Z,35.47
2018-09-18T16:33:39.298Z,36.45
2018-09-18T16:36:09.536Z,36.17
2018-09-18T16:38:42.388Z,35.99
2018-09-18T16:41:19.844Z,36.18
2018-09-18T16:43:50.015Z,35.99
2018-09-18T16:46:19.501Z,36.47
2018-09-18T16:48:52.397Z,36.92
2018-09-18T16:51:21.529Z,36.84
2018-09-18T16:53:50.075Z,37.39
2018-09-18T16:56:18.653Z,37.95
2018-09-18T16:58:47.238Z,37.66
2018-09-18T17:01:15.851Z,37.74
2018-09-18T17:03:44.404Z,37.94
2018-09-18T17:06:12.976Z,38.77
2018-09-18T17:08:41.586Z,39.48
2018-09-18T17:11:10.200Z,40.10
2018-09-18T17:13:38.710Z,40.21
2018-09-18T17:16:07.304Z,40.92
2018-09-18T17:18:35.850Z,41.26
2018-09-18T17:21:04.456Z,41.64
2018-09-18T17:23:32.991Z,41.84
2018-09-18T17:26:01.546Z,41.89
2018-09-18T17:28:30.211Z,42.30
2018-09-18T17:31:05.106Z,43.01
2018-09-18T17:33:41.047Z,43.84
2018-09-18T17:38:49.705Z,44.62
2018-09-18T17:41:18.582Z,44.75
2018-09-18T17:43:47.100Z,44.75
2018-09-18T17:46:25.460Z,44.77
2018-09-18T17:49:00.519Z,45.73
2018-09-18T17:51:34.551Z,46.11
2018-09-18T17:54:09.790Z,46.25
2018-09-18T17:56:44.801Z,46.03
2018-09-18T17:59:16.170Z,48.31
2018-09-18T18:01:46.124Z,47.46
2018-09-18T18:04:25.091Z,47.71
2018-09-18T18:06:56.005Z,46.69
2018-09-18T18:09:27.127Z,45.64
2018-09-18T18:11:57.980Z,45.24
2018-09-18T18:14:32.044Z,45.83
2018-09-18T18:17:10.369Z,45.44
2018-09-18T18:19:39.835Z,45.41
2018-09-18T18:22:18.112Z,45.09
2018-09-18T18:24:47.242Z,45.91
2018-09-18T18:27:16.093Z,45.62
2018-09-18T18:29:44.624Z,45.77
2018-09-18T18:32:13.188Z,46.06
2018-09-18T18:34:41.710Z,46.70
2018-09-18T18:37:10.345Z,47.47
2018-09-18T18:39:39.132Z,47.83
2018-09-18T18:42:08.838Z,47.62
2018-09-18T18:44:37.948Z,48.25
2018-09-18T18:47:08.599Z,47.64
2018-09-18T18:49:40.172Z,48.09
2018-09-18T18:52:15.045Z,47.77
2018-09-18T18:54:49.319Z,48.40
2018-09-18T18:57:20.348Z,48.79
2018-09-18T18:59:50.222Z,49.79
2018-09-18T19:02:24.821Z,50.62
2018-09-18T19:04:57.884Z,53.65
2018-09-18T19:07:27.891Z,54.85
2018-09-18T19:09:56.497Z,56.34
2018-09-18T19:12:25.308Z,55.98
2018-09-18T19:14:53.858Z,56.84
2018-09-18T19:17:22.426Z,58.07
2018-09-18T19:19:51.098Z,58.57
2018-09-18T19:24:47.304Z,59.44
2018-09-18T19:27:16.109Z,60.61
2018-09-18T19:29:44.957Z,60.47
2018-09-18T19:32:14.089Z,60.49
2018-09-18T19:34:43.363Z,61.42
2018-09-18T19:37:11.926Z,60.58
2018-09-18T19:39:42.137Z,61.50
2018-09-18T19:42:11.963Z,62.43
2018-09-18T19:44:43.217Z,63.07
2018-09-18T19:47:11.785Z,62.59
2018-09-18T19:49:45.339Z,62.38
2018-09-18T19:52:19.910Z,65.17
2018-09-18T19:54:48.665Z,64.41
2018-09-18T19:57:17.223Z,64.68
2018-09-18T19:59:45.756Z,68.63
2018-09-18T20:02:14.376Z,67.15
2018-09-18T20:04:42.907Z,65.96
2018-09-18T20:07:11.469Z,68.19
2018-09-18T20:09:41.976Z,67.75
2018-09-18T20:12:10.629Z,68.07
2018-09-18T20:14:39.212Z,67.72
2018-09-18T20:17:07.778Z,67.00
2018-09-18T20:19:39.720Z,66.60
2018-09-18T20:22:11.297Z,66.37
2018-09-18T20:24:41.195Z,66.88
2018-09-18T20:27:13.651Z,66.21
2018-09-18T20:29:44.671Z,66.01
2018-09-18T20:32:14.336Z,66.89
2018-09-18T20:34:44.376Z,68.00
2018-09-18T20:37:15.504Z,68.11
2018-09-18T20:39:44.223Z,67.88
2018-09-18T20:42:14.580Z,69.03
2018-09-18T20:44:44.455Z,68.74
2018-09-18T20:47:13.108Z,69.51
2018-09-18T20:49:43.319Z,69.29
2018-09-18T20:52:14.751Z,70.34
2018-09-18T20:54:47.057Z,71.27
2018-09-18T20:57:18.653Z,69.33
2018-09-18T20:59:49.854Z,68.07
2018-09-18T21:02:20.584Z,68.96
2018-09-18T21:04:50.835Z,69.12
2018-09-18T21:07:22.932Z,69.38
2018-09-18T21:09:52.571Z,70.18
2018-09-18T21:12:23.427Z,70.76
2018-09-18T21:14:54.166Z,72.22
2018-09-18T21:17:24.174Z,71.76
2018-09-18T21:19:55.839Z,71.79
2018-09-18T21:22:26.440Z,70.70
2018-09-18T21:26:07.043Z,71.11
2018-09-18T21:28:37.355Z,71.67
2018-09-18T21:31:07.150Z,72.79
2018-09-18T21:33:37.545Z,73.68
2018-09-18T21:36:08.376Z,74.90
2018-09-18T21:38:38.527Z,74.03
2018-09-18T21:41:07.710Z,73.99
2018-09-18T21:43:38.872Z,75.93
2018-09-18T21:46:08.382Z,74.93
2018-09-18T21:48:40.098Z,76.12
2018-09-18T21:51:09.334Z,74.99
2018-09-18T21:53:38.105Z,74.91
2018-09-18T21:56:06.637Z,75.57
2018-09-18T21:58:42.306Z,75.28
2018-09-18T22:01:12.114Z,76.04
2018-09-18T22:03:42.365Z,76.40
2018-09-18T22:06:13.225Z,75.58
2018-09-18T22:08:45.906Z,76.63
2018-09-18T22:11:18.940Z,76.22
2018-09-18T22:13:49.180Z,75.06
2018-09-18T22:16:19.873Z,75.76
2018-09-18T22:18:51.910Z,77.75
2018-09-18T22:21:23.186Z,76.13
2018-09-18T22:23:52.665Z,76.50
2018-09-18T22:26:24.247Z,78.97
2018-09-18T22:28:52.887Z,78.69
2018-09-18T22:31:21.364Z,79.41
2018-09-18T22:33:49.921Z,79.35
2018-09-18T22:36:18.448Z,77.96
2018-09-18T22:38:47.040Z,78.47
2018-09-18T22:41:15.617Z,78.46
2018-09-18T22:43:44.164Z,79.11
2018-09-18T22:46:12.725Z,78.79
2018-09-18T22:48:41.252Z,80.06
2018-09-18T22:51:09.824Z,79.11
2018-09-18T22:53:38.344Z,78.76
2018-09-18T22:56:06.914Z,79.92
2018-09-18T22:58:35.451Z,80.79
2018-09-18T23:01:04.030Z,80.83
2018-09-18T23:03:32.580Z,80.51
2018-09-18T23:06:01.150Z,81.01
2018-09-18T23:08:29.704Z,80.91
2018-09-18T23:10:58.267Z,79.97
2018-09-18T23:13:26.793Z,81.19
2018-09-18T23:15:55.354Z,80.27
2018-09-18T23:18:23.879Z,81.24
2018-09-18T23:20:52.461Z,80.88
2018-09-18T23:23:20.992Z,81.40
2018-09-18T23:25:49.596Z,81.02
2018-09-18T23:28:18.165Z,81.45
2018-09-18T23:30:46.730Z,85.01
2018-09-18T23:33:15.257Z,83.91
2018-09-18T23:35:43.822Z,83.08
2018-09-18T23:38:12.351Z,82.39
2018-09-18T23:40:40.914Z,81.69
2018-09-18T23:43:09.486Z,83.28
2018-09-18T23:45:38.053Z,83.58
2018-09-18T23:48:06.601Z,83.63
2018-09-18T23:50:35.164Z,84.37
2018-09-18T23:53:03.716Z,84.31
2018-09-18T23:55:32.684Z,84.33
2018-09-18T23:58:01.213Z,83.92
